Overview Statistics Trail Chart Weather Telemetry Raw packets
 

This is the latest recevied weather packets stored in our database for station/object WA1TYB-13. If no packets are shown the sender has not sent any weather packets the latest 10 day(s).

<< 106 107 108 109 110 111 112 >>
Time Temp. Humidity Pressure Rain* Wind** Luminosity Snow
1787807581 21.11° C 43% 1022 hPa 0 mm - 0 W/m² -
1787807275 20.56° C 47% 1021.8 hPa 0 mm - 0 W/m² -
1787806970 21.11° C 49% 1022.5 hPa 0 mm - 0 W/m² -
1787806669 19.44° C 51% 1023.1 hPa 0 mm - 0 W/m² -
1787806365 20.56° C 51% 1023.3 hPa 0 mm - 0 W/m² -
1787806063 20.56° C 46% 1023.4 hPa 0 mm - 0 W/m² -
1787805759 20.56° C 45% 1023.9 hPa 0 mm - 0 W/m² -
1787805454 21.11° C 45% 1023.4 hPa 0 mm - 0 W/m² -
1787805151 21.11° C 44% 1023.3 hPa 0 mm - 0 W/m² -
1787804849 21.11° C 44% 1022.7 hPa 0 mm - 0 W/m² -
1787804545 21.11° C 44% 1022.7 hPa 0 mm - 0 W/m² -
1787804244 20.56° C 45% 1022.2 hPa 0 mm - 0 W/m² -
1787803939 20.56° C 44% 1021.7 hPa 0 mm - 0 W/m² -
1787803633 20.56° C 46% 1021.3 hPa 0 mm - 0 W/m² -
1787803332 20.56° C 45% 1020.9 hPa 0 mm - 0 W/m² -
1787803027 20° C 50% 1020.5 hPa 0 mm - 0 W/m² -
1787802726 18.89° C 53% 1020.7 hPa 0 mm - 0 W/m² -
1787802420 19.44° C 51% 1020.9 hPa 0 mm - 0 W/m² -
1787802114 20° C 48% 1020.9 hPa 0 mm - 0 W/m² -
1787801811 20.56° C 41% 1021.1 hPa 0 mm - 0 W/m² -
1787801506 21.11° C 38% 1020.5 hPa 0 mm - 0 W/m² -
1787801205 20.56° C 37% 1020.7 hPa 0 mm - 0 W/m² -
1787800903 20° C 43% 1020.7 hPa 0 mm - 0 W/m² -
1787800599 20° C 42% 1020.8 hPa 0 mm - 0 W/m² -
1787800298 20° C 43% 1020.6 hPa 0 mm - 0 W/m² -

* Rain latest hour (hover to see other rain measurements)
** Current wind speed in m/s (hover to see current wind gust speed)